Weather History for Socorro, NM

Change the Weather History Date:

Thursday, January 31, 2013

  Actual Average Record
Temperature  
Mean Temperature 40 °F -  
Max Temperature 55 °F 54 °F 67 °F (2014)
Min Temperature 25 °F 23 °F 25 °F (2013)
Degree Days  
Heating Degree Days 25    
Moisture  
Dew Point 17 °F    
Average Humidity 42    
Maximum Humidity 63    
Minimum Humidity 23    
Precipitation  
Precipitation 0.00 in - - ()
Sea Level Pressure  
Sea Level Pressure 30.24 in    
Wind  
Wind Speed 7 mph (NNW)    
Max Wind Speed 16 mph    
Max Gust Speed 21 mph    
Visibility 10 miles    
Events      
Averages and records for this station are not official NWS values.
T = Trace of Precipitation, MM = Missing Value Source: NWS Daily Summary

Daily Weather History Graph

Daily Weather History Graph

Search for Another Location

Airport:

Trip Planner

Search our weather history database for the weather conditions in past years. The results will help you decide how hot, cold, wet, or windy it might be!

Date:

Astronomy

Jan. 31, 2013 Rise Set
Actual Time 7:05 AM MST 5:37 PM MST
Civil Twilight 6:38 AM MST 6:03 PM MST
Nautical Twilight 6:08 AM MST 6:33 PM MST
Astronomical Twilight 5:39 AM MST 7:03 PM MST
Moon 10:25 PM MST (1/31) 9:21 AM MST (1/31)
Length of Visible Light 11h 24m
Length of Day
10h 32m
Waning Gibbous, 79% of the Moon is Illuminated
Jan 31
Waning Gibbous
Feb 3
Last Quarter
Feb 10
New
Feb 17
First Quarter
Feb 25
Full

Hourly Weather History & Observations

Time (MST) Temp. Windchill Dew Point Humidity Pressure Visibility Wind Dir Wind Speed Gust Speed Precip Events Conditions
12:15 AM 41.0 °F 33.9 °F 15.3 °F 35% 30.19 in 10.0 mi WNW 12.7 mph 17.3 mph N/A   Clear
12:35 AM 41.2 °F 33.7 °F 15.8 °F 36% 30.19 in 10.0 mi WNW 13.8 mph 19.6 mph N/A   Clear
12:55 AM 41.2 °F 34.1 °F 16.5 °F 37% 30.19 in 10.0 mi WNW 12.7 mph - N/A   Clear
1:15 AM 36.3 °F - 14.9 °F 42% 30.19 in 10.0 mi Calm Calm - N/A   Clear
1:35 AM 36.0 °F - 15.8 °F 44% 30.19 in 10.0 mi Calm Calm - N/A   Clear
1:55 AM 35.8 °F - 16.5 °F 46% 30.20 in 10.0 mi Calm Calm - N/A   Clear
2:15 AM 35.1 °F 30.1 °F 16.9 °F 48% 30.20 in 10.0 mi SSE 5.8 mph - N/A   Clear
2:35 AM 36.3 °F 33.7 °F 16.9 °F 45% 30.21 in 10.0 mi South 3.5 mph - N/A   Clear
2:55 AM 29.7 °F 20.1 °F 14.2 °F 53% 30.21 in 10.0 mi SE 11.5 mph - N/A   Clear
3:15 AM 29.8 °F 19.3 °F 14.2 °F 52% 30.23 in 10.0 mi SSE 13.8 mph - N/A   Clear
3:35 AM 28.6 °F 21.5 °F 13.8 °F 54% 30.23 in 10.0 mi SSE 6.9 mph - N/A   Clear
3:55 AM 28.6 °F 21.5 °F 13.5 °F 53% 30.23 in 10.0 mi SSE 6.9 mph - N/A   Clear
4:15 AM 28.9 °F 25.2 °F 13.8 °F 53% 30.21 in 10.0 mi SE 3.5 mph - N/A   Clear
4:35 AM 28.2 °F 23.1 °F 13.8 °F 55% 30.22 in 10.0 mi WNW 4.6 mph - N/A   Clear
4:55 AM 28.8 °F 25.0 °F 14.4 °F 55% 30.23 in 10.0 mi WSW 3.5 mph - N/A   Clear
5:15 AM 30.4 °F - 15.6 °F 54% 30.23 in 10.0 mi Calm Calm - N/A   Clear
5:35 AM 30.6 °F 27.1 °F 15.6 °F 54% 30.24 in 10.0 mi SSE 3.5 mph - N/A   Clear
5:55 AM 31.1 °F 27.7 °F 15.6 °F 53% 30.25 in 10.0 mi SSW 3.5 mph - N/A   Clear
6:15 AM 29.1 °F 21.3 °F 14.9 °F 55% 30.26 in 10.0 mi South 8.1 mph - N/A   Clear
6:35 AM 28.0 °F 21.7 °F 14.9 °F 58% 30.27 in 10.0 mi SSW 5.8 mph - N/A   Clear
6:55 AM 25.2 °F 20.9 °F 14.0 °F 63% 30.27 in 10.0 mi SSE 3.5 mph - N/A   Clear
7:15 AM 26.8 °F 22.8 °F 14.9 °F 61% 30.27 in 10.0 mi South 3.5 mph - N/A   Clear
7:35 AM 25.9 °F - 14.7 °F 63% 30.28 in 10.0 mi Calm Calm - N/A   Clear
7:55 AM 29.3 °F 25.6 °F 15.1 °F 55% 30.30 in 10.0 mi SE 3.5 mph - N/A   Clear
8:15 AM 30.6 °F 25.8 °F 15.8 °F 54% 30.30 in 10.0 mi South 4.6 mph - N/A   Clear
8:35 AM 32.2 °F 28.9 °F 16.0 °F 51% 30.30 in 10.0 mi South 3.5 mph - N/A   Clear
8:55 AM 35.2 °F - 18.0 °F 49% 30.30 in 10.0 mi Calm Calm - N/A   Clear
9:15 AM 37.6 °F 34.0 °F 19.8 °F 49% 30.30 in 10.0 mi North 4.6 mph - N/A   Clear
9:35 AM 39.0 °F - 19.9 °F 46% 30.30 in 10.0 mi Calm Calm - N/A   Clear
9:55 AM 41.0 °F 39.0 °F 20.1 °F 43% 30.30 in 10.0 mi North 3.5 mph - N/A   Clear
10:15 AM 42.4 °F 40.7 °F 20.3 °F 41% 30.29 in 10.0 mi NE 3.5 mph - N/A   Clear
10:35 AM 46.0 °F 42.5 °F 20.1 °F 36% 30.28 in 10.0 mi NNW 6.9 mph - N/A   Clear
10:55 AM 50.4 °F - 19.9 °F 30% 30.28 in 10.0 mi North 13.8 mph 19.6 mph N/A   Clear
11:15 AM 50.0 °F - 19.0 °F 29% 30.26 in 10.0 mi North 12.7 mph - N/A   Clear
11:35 AM 51.6 °F - 18.5 °F 27% 30.25 in 10.0 mi North 16.1 mph 19.6 mph N/A   Clear
11:55 AM 52.0 °F - 18.0 °F 26% 30.25 in 10.0 mi North 15.0 mph 20.7 mph N/A   Clear
12:15 PM 52.7 °F - 18.3 °F 26% 30.24 in 10.0 mi North 12.7 mph 18.4 mph N/A   Clear
12:35 PM 53.1 °F - 18.5 °F 26% 30.24 in 10.0 mi NNE 11.5 mph - N/A   Clear
12:55 PM 53.2 °F - 18.7 °F 26% 30.24 in 10.0 mi NNE 12.7 mph - N/A   Clear
1:15 PM 53.4 °F - 19.0 °F 26% 30.24 in 10.0 mi NNE 12.7 mph - N/A   Clear
1:35 PM 53.6 °F - 18.9 °F 26% 30.24 in 10.0 mi NNE 5.8 mph - N/A   Clear
1:55 PM 52.9 °F - 18.5 °F 26% 30.24 in 10.0 mi ENE 4.6 mph - N/A   Clear
2:15 PM 54.9 °F - 18.5 °F 24% 30.23 in 10.0 mi NNE 11.5 mph - N/A   Clear
2:35 PM 54.5 °F - 18.5 °F 24% 30.23 in 10.0 mi North 8.1 mph - N/A   Clear
2:55 PM 55.0 °F - 18.3 °F 24% 30.22 in 10.0 mi North 6.9 mph 16.1 mph N/A   Clear
3:15 PM 54.9 °F - 18.0 °F 24% 30.22 in 10.0 mi NE 6.9 mph - N/A   Clear
3:35 PM 54.7 °F - 18.0 °F 24% 30.22 in 10.0 mi North 6.9 mph - N/A   Clear
3:55 PM 55.0 °F - 17.6 °F 23% 30.22 in 10.0 mi NNE 5.8 mph - N/A   Clear
4:15 PM 54.5 °F - 17.8 °F 24% 30.22 in 10.0 mi NNW 4.6 mph - N/A   Clear
4:35 PM 53.8 °F - 17.6 °F 24% 30.22 in 10.0 mi North 5.8 mph - N/A   Clear
4:55 PM 52.5 °F - 17.6 °F 25% 30.22 in 10.0 mi North 6.9 mph - N/A   Clear
5:15 PM 50.7 °F - 17.6 °F 27% 30.22 in 10.0 mi North 6.9 mph - N/A   Clear
5:35 PM 48.2 °F - 17.6 °F 30% 30.23 in 10.0 mi NNW 5.8 mph - N/A   Clear
5:55 PM 45.9 °F 41.7 °F 17.4 °F 32% 30.23 in 10.0 mi NNW 8.1 mph - N/A   Clear
6:15 PM 44.4 °F 41.2 °F 17.2 °F 34% 30.24 in 10.0 mi NW 5.8 mph - N/A   Clear
6:35 PM 42.8 °F 39.3 °F 17.1 °F 36% 30.24 in 10.0 mi NNW 5.8 mph - N/A   Clear
6:55 PM 41.7 °F 37.3 °F 17.4 °F 38% 30.23 in 10.0 mi NNW 6.9 mph - N/A   Clear
7:15 PM 41.7 °F - 17.6 °F 38% 30.23 in 10.0 mi Calm Calm - N/A   Clear
7:35 PM 38.3 °F - 16.7 °F 42% 30.23 in 10.0 mi Calm Calm - N/A   Clear
7:55 PM 36.7 °F - 17.1 °F 45% 30.23 in 10.0 mi Calm Calm - N/A   Clear
8:15 PM 37.6 °F 32.3 °F 18.3 °F 46% 30.24 in 10.0 mi WSW 6.9 mph - N/A   Clear
8:35 PM 38.5 °F 32.7 °F 18.3 °F 44% 30.25 in 10.0 mi WSW 8.1 mph - N/A   Clear
8:55 PM 37.4 °F 32.8 °F 18.1 °F 46% 30.26 in 10.0 mi West 5.8 mph - N/A   Clear
9:15 PM 36.5 °F 30.3 °F 18.1 °F 47% 30.26 in 10.0 mi WSW 8.1 mph - N/A   Clear
9:35 PM 37.6 °F 31.0 °F 18.1 °F 45% 30.26 in 10.0 mi WSW 9.2 mph - N/A   Clear
9:55 PM 36.1 °F - 18.0 °F 48% 30.27 in 10.0 mi Calm Calm - N/A   Clear
10:15 PM 36.0 °F - 18.3 °F 49% 30.27 in 10.0 mi Calm Calm - N/A   Clear
10:35 PM 33.1 °F 30.0 °F 18.0 °F 54% 30.27 in 10.0 mi NNW 3.5 mph - N/A   Clear
10:55 PM 32.0 °F 25.6 °F 17.4 °F 55% 30.27 in 10.0 mi WNW 6.9 mph - N/A   Clear
11:15 PM 32.2 °F 25.0 °F 17.6 °F 55% 30.27 in 10.0 mi NW 8.1 mph - N/A   Clear
11:35 PM 32.5 °F 28.1 °F 17.4 °F 54% 30.26 in 10.0 mi NNW 4.6 mph - N/A   Clear
11:55 PM 32.7 °F 28.3 °F 17.4 °F 53% 30.25 in 10.0 mi NNW 4.6 mph - N/A   Clear